Time;durP1;ratioP1;P1;durP2;ratioP2;P2;SDS_P1;SDS_P2;PMS_P1;PMS_P2;Temp;Humidity;BMP_temperature;BMP_pressure;BME280_temperature;BME280_humidity;BME280_pressure;Samples;Min_cycle;Max_cycle;Signal;HPM_P1;HPM_P2
2022/07/02 03:35:10;;;;;;;2.75;0.63;;;19.90;63.50;;;;;;5544057;24;20091;-79
2022/07/02 03:37:36;;;;;;;1.70;0.95;;;19.90;63.20;;;;;;4755975;30;20454;-73
2022/07/02 03:40:02;;;;;;;2.92;1.10;;;19.90;63.60;;;;;;4726509;30;20080;-73
2022/07/02 03:42:27;;;;;;;4.65;1.00;;;19.90;63.50;;;;;;4756099;30;20546;-73
2022/07/02 03:44:53;;;;;;;4.07;1.05;;;19.80;63.40;;;;;;4755826;30;20123;-73
2022/07/02 03:47:19;;;;;;;3.33;1.17;;;19.80;63.50;;;;;;4754792;30;20243;-72
2022/07/02 03:49:45;;;;;;;2.42;1.05;;;19.80;63.90;;;;;;4755961;30;20456;-73
2022/07/02 03:52:10;;;;;;;2.53;0.80;;;19.90;64.50;;;;;;4756067;30;20123;-76
2022/07/02 03:54:36;;;;;;;3.03;1.00;;;19.90;64.00;;;;;;4756373;30;20063;-79
2022/07/02 03:57:03;;;;;;;4.40;1.05;;;20.00;63.60;;;;;;4739664;30;20060;-74
2022/07/02 03:59:28;;;;;;;3.72;1.10;;;20.00;63.20;;;;;;4755324;30;20100;-74
2022/07/02 04:01:54;;;;;;;4.00;1.10;;;20.00;62.90;;;;;;4755603;30;20083;-72
2022/07/02 04:04:20;;;;;;;4.40;1.15;;;20.00;63.00;;;;;;4755505;30;20134;-74
2022/07/02 04:06:46;;;;;;;4.82;1.10;;;19.90;62.80;;;;;;4755823;30;20461;-75
2022/07/02 04:09:13;;;;;;;4.65;1.27;;;20.00;62.80;;;;;;4755398;30;20052;-79
2022/07/02 04:11:42;;;;;;;3.47;1.30;;;19.90;62.70;;;;;;4738953;30;20044;-77
2022/07/02 04:14:07;;;;;;;5.22;1.60;;;19.90;62.70;;;;;;4755252;30;20384;-77
2022/07/02 04:16:33;;;;;;;6.85;1.92;;;19.90;62.60;;;;;;4755375;30;20044;-75
2022/07/02 04:18:59;;;;;;;5.18;1.33;;;19.90;62.80;;;;;;4755270;30;20123;-74
2022/07/02 04:21:25;;;;;;;5.88;1.77;;;19.80;63.30;;;;;;4755367;30;20048;-73
2022/07/02 04:23:51;;;;;;;3.67;1.40;;;19.80;63.80;;;;;;4755299;30;20369;-73
2022/07/02 04:26:17;;;;;;;7.10;1.95;;;19.80;64.00;;;;;;4755455;30;20045;-75
2022/07/02 04:28:42;;;;;;;5.80;1.85;;;19.70;63.90;;;;;;4755114;30;20052;-74
2022/07/02 04:31:08;;;;;;;4.97;1.70;;;19.70;63.90;;;;;;4754846;30;20062;-76
2022/07/02 04:33:34;;;;;;;5.70;1.80;;;19.70;64.30;;;;;;4755031;30;20084;-74
2022/07/02 04:36:00;;;;;;;5.88;2.58;;;19.60;64.30;;;;;;4763117;30;20068;-75
2022/07/02 04:38:25;;;;;;;5.63;1.70;;;19.60;64.60;;;;;;4772853;30;20448;-77
2022/07/02 04:40:52;;;;;;;5.18;1.58;;;19.60;64.70;;;;;;4772531;30;20094;-74
2022/07/02 04:43:18;;;;;;;14.90;2.80;;;19.60;64.70;;;;;;4772632;30;20101;-74
2022/07/02 04:45:44;;;;;;;7.93;2.33;;;19.60;65.00;;;;;;4772681;30;20051;-74
2022/07/02 04:48:10;;;;;;;8.77;2.25;;;19.50;65.20;;;;;;4772213;30;20060;-74
2022/07/02 04:50:35;;;;;;;10.85;2.95;;;19.50;65.50;;;;;;4772591;30;20142;-73
2022/07/02 04:53:01;;;;;;;12.95;4.18;;;19.50;65.60;;;;;;4772643;30;20124;-72
2022/07/02 04:55:27;;;;;;;6.38;3.20;;;19.50;66.10;;;;;;4771828;30;20097;-73
2022/07/02 04:57:53;;;;;;;10.15;3.70;;;19.50;66.50;;;;;;4775662;30;20043;-73
2022/07/02 05:00:19;;;;;;;6.65;2.50;;;19.50;66.50;;;;;;4772071;30;20094;-73
2022/07/02 05:02:44;;;;;;;9.85;2.38;;;19.50;66.40;;;;;;4772415;30;20051;-72
2022/07/02 05:05:10;;;;;;;4.65;2.00;;;19.50;66.30;;;;;;4773103;30;20052;-72
2022/07/02 05:07:36;;;;;;;7.97;2.00;;;19.40;66.10;;;;;;4772879;30;20105;-72
2022/07/02 05:10:02;;;;;;;5.32;1.88;;;19.40;66.20;;;;;;4772090;30;20132;-72
2022/07/02 05:12:28;;;;;;;5.07;1.75;;;19.40;66.30;;;;;;4772004;30;20055;-75
2022/07/02 05:14:53;;;;;;;7.15;1.98;;;19.40;66.50;;;;;;4772130;30;20074;-78
2022/07/02 05:17:19;;;;;;;6.95;2.25;;;19.40;67.00;;;;;;4772472;30;20051;-76
2022/07/02 05:19:45;;;;;;;6.13;2.67;;;19.40;66.50;;;;;;4772167;30;20050;-80
2022/07/02 05:22:14;;;;;;;5.80;1.90;;;19.40;67.40;;;;;;4771793;30;20056;-78
2022/07/02 05:24:39;;;;;;;7.45;3.63;;;19.30;67.30;;;;;;4771609;30;20062;-78
2022/07/02 05:27:05;;;;;;;8.80;2.50;;;19.40;67.20;;;;;;4756253;30;20051;-76
2022/07/02 05:29:31;;;;;;;4.90;1.80;;;19.30;67.60;;;;;;4771905;30;20386;-83
2022/07/02 05:31:57;;;;;;;10.05;3.03;;;19.30;67.60;;;;;;4772077;30;20055;-75
2022/07/02 05:34:22;;;;;;;8.13;2.55;;;19.30;68.00;;;;;;4772175;30;20051;-75
2022/07/02 05:36:48;;;;;;;6.78;3.70;;;19.30;68.60;;;;;;4771209;30;20067;-76
2022/07/02 05:39:14;;;;;;;6.95;2.20;;;19.40;69.10;;;;;;4771800;30;20470;-77
2022/07/02 05:41:41;;;;;;;9.43;3.50;;;19.40;69.20;;;;;;4771276;30;20055;-76
2022/07/02 05:44:07;;;;;;;7.55;1.88;;;19.40;69.30;;;;;;4775164;30;20365;-78
2022/07/02 05:46:33;;;;;;;7.90;2.50;;;19.50;68.80;;;;;;4771954;30;20051;-77
2022/07/02 05:48:59;;;;;;;6.90;2.38;;;19.60;68.60;;;;;;4774283;30;20043;-77
2022/07/02 05:51:26;;;;;;;12.10;5.60;;;19.60;68.80;;;;;;4773827;30;20051;-78
2022/07/02 05:53:52;;;;;;;11.73;3.05;;;19.60;68.90;;;;;;4773585;30;20098;-79
2022/07/02 05:56:18;;;;;;;5.50;1.75;;;19.60;68.80;;;;;;4789589;30;20075;-77
2022/07/02 05:58:43;;;;;;;6.28;1.80;;;19.60;68.40;;;;;;4789418;29;20051;-77
2022/07/02 06:01:09;;;;;;;9.77;1.75;;;19.60;68.30;;;;;;4783005;30;20127;-77
2022/07/02 06:03:35;;;;;;;5.35;1.30;;;19.70;68.50;;;;;;4775634;30;20062;-77
2022/07/02 06:08:44;;;;;;;12.23;1.40;;;19.70;68.20;;;;;;4775136;30;20056;-77
2022/07/02 06:11:11;;;;;;;9.27;1.40;;;19.70;67.80;;;;;;4775463;30;20503;-77
2022/07/02 06:13:37;;;;;;;7.32;1.00;;;19.70;68.00;;;;;;4774345;30;20055;-78
2022/07/02 06:16:04;;;;;;;5.68;1.02;;;19.70;67.70;;;;;;4775083;30;20055;-78
2022/07/02 06:18:30;;;;;;;6.20;1.23;;;19.70;67.90;;;;;;4774966;30;20448;-74
2022/07/02 06:20:56;;;;;;;5.07;1.33;;;19.70;68.10;;;;;;4775408;30;20072;-78
2022/07/02 06:23:21;;;;;;;7.90;1.20;;;19.70;67.80;;;;;;4775228;30;20051;-76
2022/07/02 06:25:50;;;;;;;6.28;1.35;;;19.70;68.00;;;;;;4775248;30;20380;-74
2022/07/02 06:28:16;;;;;;;8.60;1.10;;;19.70;68.20;;;;;;4775444;30;20537;-73
2022/07/02 06:30:42;;;;;;;5.40;1.20;;;19.70;67.70;;;;;;4774918;30;20134;-74
2022/07/02 06:33:08;;;;;;;4.47;0.80;;;19.70;67.30;;;;;;4774769;30;20056;-74
2022/07/02 06:35:33;;;;;;;5.72;0.85;;;19.80;67.40;;;;;;4772922;30;20352;-73
2022/07/02 06:37:59;;;;;;;7.30;1.00;;;19.70;67.60;;;;;;4781537;30;20098;-75
2022/07/02 06:40:25;;;;;;;6.43;1.00;;;19.80;67.70;;;;;;4778367;30;20048;-74
2022/07/02 06:42:51;;;;;;;7.43;0.90;;;19.80;67.60;;;;;;4775762;30;20052;-74
2022/07/02 06:45:16;;;;;;;7.32;1.10;;;19.90;67.50;;;;;;4776151;30;20193;-72
2022/07/02 06:47:43;;;;;;;5.68;0.77;;;19.90;67.40;;;;;;4784251;30;20466;-73
2022/07/02 06:50:10;;;;;;;5.00;1.00;;;20.00;67.20;;;;;;4786849;30;20083;-73
2022/07/02 06:52:36;;;;;;;7.68;1.00;;;20.00;67.10;;;;;;4792458;30;20155;-74
2022/07/02 06:55:02;;;;;;;8.18;1.08;;;20.00;67.00;;;;;;4784548;30;20470;-73
2022/07/02 06:57:28;;;;;;;4.57;0.73;;;20.00;67.00;;;;;;4774132;30;20459;-74
2022/07/02 06:59:53;;;;;;;3.83;0.80;;;20.10;67.00;;;;;;4774678;30;20070;-74
2022/07/02 07:02:20;;;;;;;4.82;0.75;;;20.10;67.00;;;;;;4787411;30;20051;-74
2022/07/02 07:04:46;;;;;;;7.63;1.02;;;20.10;67.00;;;;;;4791521;30;20139;-74
2022/07/02 07:07:12;;;;;;;4.00;0.75;;;20.10;67.00;;;;;;4775970;30;20131;-74
2022/07/02 07:09:38;;;;;;;2.53;0.52;;;20.20;67.00;;;;;;4784908;29;20440;-74
2022/07/02 07:12:05;;;;;;;6.38;1.20;;;20.20;66.90;;;;;;4792191;30;20061;-74
2022/07/02 07:14:32;;;;;;;4.28;0.68;;;20.20;66.90;;;;;;4790525;30;20402;-74
2022/07/02 07:16:58;;;;;;;3.42;0.60;;;20.30;66.90;;;;;;4792216;30;20090;-74
2022/07/02 07:19:24;;;;;;;4.82;0.68;;;20.30;66.80;;;;;;4791751;30;20101;-74
2022/07/02 07:21:50;;;;;;;5.15;0.75;;;20.30;66.70;;;;;;4791659;30;20069;-74
2022/07/02 07:24:16;;;;;;;4.35;0.95;;;20.30;66.70;;;;;;4791813;30;20135;-74
2022/07/02 07:26:42;;;;;;;2.75;0.65;;;20.30;66.60;;;;;;4778230;30;20460;-74
2022/07/02 07:29:08;;;;;;;4.85;0.60;;;20.40;66.60;;;;;;4774077;30;20040;-74
2022/07/02 07:31:35;;;;;;;3.00;0.65;;;20.30;66.50;;;;;;4786508;30;20463;-74
2022/07/02 07:34:02;;;;;;;3.97;1.20;;;20.40;66.40;;;;;;4775175;30;20048;-74
2022/07/02 07:36:27;;;;;;;4.05;0.95;;;20.40;66.40;;;;;;4773579;30;20064;-74
2022/07/02 07:38:54;;;;;;;2.83;0.93;;;20.40;66.40;;;;;;4773780;30;20071;-73
2022/07/02 07:41:21;;;;;;;2.50;0.57;;;20.50;66.30;;;;;;4773830;30;20060;-73
2022/07/02 07:43:47;;;;;;;3.35;0.77;;;20.40;66.30;;;;;;4763523;30;20047;-74
2022/07/02 07:46:13;;;;;;;2.70;1.00;;;20.50;66.40;;;;;;4778896;30;20486;-74
2022/07/02 07:48:39;;;;;;;2.83;0.75;;;20.50;66.50;;;;;;4773936;30;20055;-74
2022/07/02 07:51:05;;;;;;;4.40;0.57;;;20.50;66.50;;;;;;4773430;30;20052;-74
2022/07/02 07:53:32;;;;;;;1.30;0.50;;;20.50;67.10;;;;;;4773676;30;20066;-74
2022/07/02 07:55:58;;;;;;;1.33;0.60;;;20.60;66.50;;;;;;4773730;30;20047;-73
2022/07/02 07:58:24;;;;;;;3.58;0.52;;;20.60;66.50;;;;;;4774670;30;20044;-74
2022/07/02 08:00:49;;;;;;;2.85;0.70;;;20.60;67.10;;;;;;4780235;30;20459;-73
2022/07/02 08:03:17;;;;;;;2.53;0.73;;;20.60;66.50;;;;;;4779070;30;20058;-74
2022/07/02 08:05:43;;;;;;;1.50;0.63;;;20.60;66.50;;;;;;4790745;30;20051;-73
2022/07/02 08:08:09;;;;;;;1.95;0.50;;;20.60;66.50;;;;;;4791492;30;20130;-74
2022/07/02 08:10:35;;;;;;;3.88;0.60;;;20.60;66.50;;;;;;4774039;30;20190;-74
2022/07/02 08:13:01;;;;;;;1.52;0.50;;;20.70;66.60;;;;;;4773097;30;20131;-73
2022/07/02 08:15:27;;;;;;;3.85;0.52;;;20.70;66.60;;;;;;4772892;30;20122;-74
2022/07/02 08:17:53;;;;;;;1.55;0.40;;;20.70;66.60;;;;;;4773012;30;20063;-74
2022/07/02 08:20:20;;;;;;;2.47;0.45;;;20.70;66.60;;;;;;4773293;30;20047;-74
2022/07/02 08:22:46;;;;;;;2.53;0.60;;;20.70;66.60;;;;;;4772142;30;20529;-74
2022/07/02 08:25:14;;;;;;;2.15;0.60;;;20.70;66.60;;;;;;4776544;30;20112;-74
2022/07/02 08:27:41;;;;;;;1.83;0.40;;;20.80;66.60;;;;;;4783868;30;20079;-75
2022/07/02 08:30:08;;;;;;;1.98;0.75;;;20.80;66.60;;;;;;4773096;30;20047;-74
2022/07/02 08:32:34;;;;;;;2.85;0.73;;;20.80;66.60;;;;;;4775169;30;20047;-74
2022/07/02 08:34:59;;;;;;;2.97;0.50;;;20.80;66.60;;;;;;4790380;30;20058;-74
2022/07/02 08:37:26;;;;;;;1.83;0.40;;;20.80;66.60;;;;;;4790470;30;20392;-74
2022/07/02 08:39:52;;;;;;;2.60;0.50;;;20.90;66.60;;;;;;4789294;30;20055;-74
2022/07/02 08:42:29;;;;;;;2.38;0.68;;;20.90;66.60;;;;;;4772650;30;20047;-74
2022/07/02 08:44:57;;;;;;;1.55;0.30;;;20.90;66.60;;;;;;4772545;30;20138;-74
2022/07/02 08:47:24;;;;;;;2.25;0.55;;;20.90;66.60;;;;;;4773653;30;20079;-74
2022/07/02 08:49:55;;;;;;;4.32;0.50;;;20.90;66.50;;;;;;4786992;30;20051;-74
2022/07/02 08:52:23;;;;;;;1.00;0.20;;;21.00;66.60;;;;;;4759523;30;20048;-74
2022/07/02 08:54:49;;;;;;;1.58;0.40;;;21.00;66.50;;;;;;4772443;30;20102;-74
2022/07/02 08:57:16;;;;;;;1.48;0.30;;;21.00;66.40;;;;;;4772927;30;20391;-74
2022/07/02 08:59:42;;;;;;;1.95;0.43;;;21.00;66.40;;;;;;4756939;30;20090;-74
2022/07/02 09:02:11;;;;;;;2.13;0.52;;;21.00;66.30;;;;;;4784593;30;20125;-74
2022/07/02 09:04:40;;;;;;;1.30;0.40;;;21.00;66.30;;;;;;4782186;30;20051;-74
2022/07/02 09:07:07;;;;;;;2.67;0.68;;;21.00;66.20;;;;;;4790120;30;20098;-74
2022/07/02 09:09:33;;;;;;;1.02;0.20;;;21.00;66.20;;;;;;4789946;30;20051;-74
2022/07/02 09:12:00;;;;;;;2.13;0.57;;;21.00;66.20;;;;;;4790469;30;20070;-74
2022/07/02 09:14:27;;;;;;;2.05;0.43;;;21.00;66.20;;;;;;4789390;30;20499;-74
2022/07/02 09:16:53;;;;;;;1.20;0.30;;;21.10;66.20;;;;;;4790168;30;20055;-74
2022/07/02 09:19:19;;;;;;;1.33;0.35;;;21.10;66.20;;;;;;4780818;30;20063;-74
2022/07/02 09:21:52;;;;;;;1.50;0.40;;;21.10;66.20;;;;;;4784488;30;20486;-74
2022/07/02 09:24:39;;;;;;;2.42;0.73;;;21.10;66.10;;;;;;4790198;30;20051;-74
2022/07/02 09:27:07;;;;;;;2.42;0.63;;;21.10;66.00;;;;;;4787801;30;20051;-75
2022/07/02 09:29:55;;;;;;;1.83;0.40;;;21.10;66.00;;;;;;4772100;30;20062;-74
2022/07/02 09:32:21;;;;;;;0.63;0.30;;;21.20;66.00;;;;;;4772035;30;20090;-74
2022/07/02 09:34:50;;;;;;;1.77;0.30;;;21.10;66.00;;;;;;4771913;30;20510;-74
2022/07/02 09:37:20;;;;;;;1.52;0.30;;;21.20;66.00;;;;;;4786058;30;20078;-74
2022/07/02 09:39:48;;;;;;;1.45;0.50;;;21.20;65.90;;;;;;4774494;30;20063;-74
2022/07/02 09:42:25;;;;;;;1.15;0.40;;;21.20;65.90;;;;;;4789652;30;20055;-74
2022/07/02 09:44:50;;;;;;;1.95;0.50;;;21.20;65.80;;;;;;4789492;30;20055;-74
2022/07/02 09:47:16;;;;;;;1.20;0.38;;;21.20;65.80;;;;;;4779672;30;20113;-74
2022/07/02 09:49:49;;;;;;;1.40;0.57;;;21.20;65.70;;;;;;4771854;30;20066;-74
2022/07/02 09:52:17;;;;;;;1.05;0.28;;;21.20;65.70;;;;;;4771665;30;20051;-74
2022/07/02 09:54:44;;;;;;;2.15;0.40;;;21.20;65.70;;;;;;4771628;30;20094;-74
2022/07/02 09:57:11;;;;;;;1.58;0.40;;;21.20;65.70;;;;;;4771811;30;20052;-74
2022/07/02 09:59:38;;;;;;;1.60;0.40;;;21.20;65.60;;;;;;4773489;30;20048;-74
2022/07/02 10:02:04;;;;;;;1.67;0.57;;;21.20;65.60;;;;;;4781771;30;20135;-74
2022/07/02 10:04:32;;;;;;;1.42;0.25;;;21.20;65.60;;;;;;4789403;30;20116;-74
2022/07/02 10:06:59;;;;;;;1.98;0.63;;;21.30;65.60;;;;;;4779246;30;20059;-74
2022/07/02 10:09:26;;;;;;;0.98;0.30;;;21.30;65.50;;;;;;4771925;30;20059;-74
2022/07/02 10:11:52;;;;;;;1.27;0.38;;;21.30;65.50;;;;;;4771620;30;20155;-74
2022/07/02 10:14:21;;;;;;;2.70;0.40;;;21.30;65.50;;;;;;4772206;30;20047;-74
2022/07/02 10:16:51;;;;;;;1.90;0.20;;;21.30;65.50;;;;;;4771430;30;20060;-74
2022/07/02 10:19:17;;;;;;;1.20;0.30;;;21.20;65.40;;;;;;4771696;30;20058;-74
2022/07/02 10:21:44;;;;;;;2.30;0.52;;;21.30;65.40;;;;;;4771584;30;20040;-74
2022/07/02 10:24:11;;;;;;;1.52;0.40;;;21.30;65.40;;;;;;4755752;30;20384;-74
2022/07/02 10:26:37;;;;;;;1.60;0.40;;;21.30;65.30;;;;;;4771898;30;20060;-74
2022/07/02 10:29:03;;;;;;;1.45;0.40;;;21.30;65.30;;;;;;4772804;30;20141;-74
2022/07/02 10:31:40;;;;;;;1.58;0.22;;;21.30;65.30;;;;;;4771277;30;20051;-74
2022/07/02 10:34:24;;;;;;;0.52;0.20;;;21.30;65.20;;;;;;4771556;30;20068;-74
2022/07/02 10:36:51;;;;;;;1.38;0.40;;;21.30;65.30;;;;;;4776164;30;20150;-74
2022/07/02 10:39:18;;;;;;;0.95;0.30;;;21.30;65.20;;;;;;4788755;30;20055;-74
2022/07/02 10:41:44;;;;;;;1.60;0.28;;;21.40;65.30;;;;;;4789079;30;20051;-75
2022/07/02 10:44:10;;;;;;;0.65;0.30;;;21.30;65.20;;;;;;4773758;29;20073;-74
2022/07/02 10:46:37;;;;;;;1.70;0.60;;;21.30;65.20;;;;;;4792569;30;20143;-74
2022/07/02 10:49:05;;;;;;;2.70;0.57;;;21.30;65.20;;;;;;4792500;30;20047;-74
2022/07/02 10:51:35;;;;;;;1.45;0.30;;;21.30;65.20;;;;;;4792676;30;20054;-74
2022/07/02 10:54:07;;;;;;;1.38;0.30;;;21.40;65.10;;;;;;4776520;30;20453;-75
2022/07/02 10:56:49;;;;;;;1.20;0.30;;;21.30;65.10;;;;;;4774329;30;20048;-75
2022/07/02 10:59:36;;;;;;;0.90;0.30;;;21.40;65.10;;;;;;4778073;30;20067;-74
2022/07/02 11:02:06;;;;;;;1.30;0.20;;;21.40;65.10;;;;;;4776117;30;20446;-74
2022/07/02 11:04:33;;;;;;;1.02;0.30;;;21.40;65.10;;;;;;4790093;30;20058;-75
2022/07/02 11:07:13;;;;;;;1.90;0.65;;;21.40;65.10;;;;;;4792157;30;20098;-74
2022/07/02 11:09:57;;;;;;;0.77;0.20;;;21.40;65.00;;;;;;4774459;30;20052;-74
2022/07/02 11:12:52;;;;;;;0.77;0.30;;;21.40;65.00;;;;;;4774476;30;20131;-74
2022/07/02 11:15:26;;;;;;;0.90;0.28;;;21.40;65.00;;;;;;4768007;30;20074;-74
2022/07/02 11:17:53;;;;;;;1.58;0.30;;;21.40;65.00;;;;;;4776088;30;20055;-74
2022/07/02 11:20:25;;;;;;;0.80;0.30;;;21.40;65.00;;;;;;4786167;30;20055;-74
2022/07/02 11:22:51;;;;;;;2.40;0.40;;;21.40;64.90;;;;;;4774285;30;20064;-74
2022/07/02 11:25:17;;;;;;;2.05;0.30;;;21.40;64.90;;;;;;4780734;30;20055;-74
2022/07/02 11:27:43;;;;;;;1.05;0.25;;;21.40;64.90;;;;;;4791836;30;20363;-74
2022/07/02 11:30:09;;;;;;;1.17;0.38;;;21.40;64.90;;;;;;4778011;30;20056;-74
2022/07/02 11:32:36;;;;;;;0.85;0.20;;;21.40;64.90;;;;;;4773479;30;20055;-74
2022/07/02 11:35:02;;;;;;;0.98;0.28;;;21.40;64.90;;;;;;4773521;30;20059;-74
2022/07/02 11:37:28;;;;;;;0.77;0.20;;;21.40;64.90;;;;;;4758439;30;20139;-74
2022/07/02 11:39:54;;;;;;;0.98;0.22;;;21.40;64.90;;;;;;4774109;30;20093;-74
2022/07/02 11:42:35;;;;;;;1.27;0.30;;;21.40;64.90;;;;;;4773482;30;20487;-74
2022/07/02 11:45:01;;;;;;;0.95;0.20;;;21.40;64.80;;;;;;4773764;30;20100;-74
2022/07/02 11:47:27;;;;;;;0.93;0.20;;;21.40;64.80;;;;;;4773777;30;20524;-74
2022/07/02 11:49:52;;;;;;;1.13;0.35;;;21.40;64.80;;;;;;4773553;30;20086;-75
2022/07/02 11:52:18;;;;;;;0.80;0.30;;;21.40;64.80;;;;;;4773579;30;20048;-75
2022/07/02 11:54:44;;;;;;;2.53;0.40;;;21.40;64.80;;;;;;4773393;30;20472;-74
2022/07/02 11:57:10;;;;;;;4.13;0.73;;;21.40;64.50;;;;;;4773842;30;20051;-75
2022/07/02 11:59:35;;;;;;;6.18;0.95;;;21.40;64.40;;;;;;4783118;30;20416;-81
2022/07/02 12:02:01;;;;;;;5.68;0.50;;;21.40;63.40;;;;;;4768524;30;20189;-83
2022/07/02 12:04:27;;;;;;;4.82;0.70;;;21.40;62.90;;;;;;4746783;30;20043;-77
2022/07/02 12:06:57;;;;;;;9.55;1.10;;;21.40;62.40;;;;;;4790132;30;20485;-81
2022/07/02 12:09:24;;;;;;;11.05;1.10;;;21.40;62.20;;;;;;4751254;30;20058;-80
2022/07/02 12:11:54;;;;;;;5.60;0.80;;;21.40;62.00;;;;;;4772767;30;20052;-76
2022/07/02 12:14:28;;;;;;;7.72;1.00;;;21.40;61.90;;;;;;4773088;30;20090;-77
2022/07/02 12:16:54;;;;;;;7.20;0.77;;;21.40;62.30;;;;;;4773216;30;20043;-77
2022/07/02 12:19:24;;;;;;;9.73;0.90;;;21.40;62.00;;;;;;4784355;30;20137;-76
2022/07/02 12:21:50;;;;;;;9.65;1.13;;;21.40;62.20;;;;;;4790579;30;20055;-77
2022/07/02 12:24:28;;;;;;;7.88;1.25;;;21.40;62.30;;;;;;4790951;30;20059;-78
2022/07/02 12:26:59;;;;;;;8.77;0.80;;;21.50;62.70;;;;;;4790439;30;20112;-74
2022/07/02 12:32:15;;;;;;;9.50;1.05;;;21.50;62.80;;;;;;4782379;30;20059;-74
2022/07/02 12:34:40;;;;;;;12.00;1.17;;;21.50;63.00;;;;;;4791002;30;20091;-80
2022/07/02 12:37:07;;;;;;;17.45;1.73;;;21.50;63.10;;;;;;4790422;30;20156;-75
2022/07/02 12:39:43;;;;;;;9.63;1.15;;;21.50;63.20;;;;;;4782694;30;20051;-76
2022/07/02 12:42:20;;;;;;;15.50;1.73;;;21.50;63.30;;;;;;4774536;30;20130;-76
2022/07/02 12:44:55;;;;;;;11.98;1.67;;;21.50;63.30;;;;;;4772590;30;20043;-75
2022/07/02 12:47:26;;;;;;;13.48;1.27;;;21.50;63.20;;;;;;4771520;30;20064;-76
2022/07/02 12:49:55;;;;;;;10.43;1.35;;;21.50;63.20;;;;;;4754501;30;20194;-76
2022/07/02 12:52:21;;;;;;;10.63;1.67;;;21.50;63.00;;;;;;4777581;30;20044;-75
2022/07/02 12:54:47;;;;;;;11.30;1.30;;;21.50;63.10;;;;;;4774389;30;20400;-75
2022/07/02 12:57:20;;;;;;;15.38;1.98;;;21.50;63.50;;;;;;4788915;30;20071;-78
2022/07/02 12:59:47;;;;;;;16.75;1.58;;;21.60;63.70;;;;;;4763312;30;20365;-79
2022/07/02 13:02:21;;;;;;;14.23;1.73;;;21.60;63.60;;;;;;4757416;30;20418;-78
2022/07/02 13:04:47;;;;;;;11.40;1.33;;;21.60;63.30;;;;;;4772508;30;20126;-74
2022/07/02 13:07:14;;;;;;;18.90;1.92;;;21.60;63.30;;;;;;4778790;29;20122;-75
2022/07/02 13:09:40;;;;;;;17.15;1.80;;;21.60;62.50;;;;;;4782992;30;20063;-77
2022/07/02 13:12:06;;;;;;;10.48;1.10;;;21.50;62.60;;;;;;4754226;30;20445;-77
2022/07/02 13:14:32;;;;;;;8.52;1.33;;;21.60;62.10;;;;;;4767801;30;20138;-75
2022/07/02 13:16:58;;;;;;;7.65;0.80;;;21.60;61.60;;;;;;4771396;30;20457;-75
2022/07/02 13:19:23;;;;;;;5.25;0.90;;;21.60;61.60;;;;;;4771697;30;20138;-74
2022/07/02 13:21:49;;;;;;;5.93;1.10;;;21.60;60.90;;;;;;4778147;30;20455;-77
2022/07/02 13:24:15;;;;;;;12.10;1.40;;;21.60;61.20;;;;;;4789632;30;20086;-79
2022/07/02 13:26:40;;;;;;;12.63;1.40;;;21.60;61.50;;;;;;4756664;30;20055;-77
2022/07/02 13:29:06;;;;;;;8.65;1.60;;;21.60;61.70;;;;;;4771231;30;20047;-76
2022/07/02 13:31:32;;;;;;;6.40;1.17;;;21.60;62.00;;;;;;4770607;30;20360;-77
2022/07/02 13:33:59;;;;;;;6.03;1.13;;;21.60;61.90;;;;;;4769553;30;20055;-75
2022/07/02 13:36:26;;;;;;;4.80;0.73;;;21.60;61.50;;;;;;4771232;30;20143;-74
2022/07/02 13:38:52;;;;;;;6.15;0.65;;;21.60;61.00;;;;;;4771844;30;20063;-76
2022/07/02 13:41:17;;;;;;;3.22;0.73;;;21.60;60.70;;;;;;4780386;30;20070;-81
2022/07/02 13:43:43;;;;;;;5.93;1.02;;;21.60;60.70;;;;;;4775605;30;20055;-77
2022/07/02 13:46:09;;;;;;;5.40;0.63;;;21.60;60.70;;;;;;4775129;30;20052;-77
2022/07/02 13:48:35;;;;;;;6.97;1.00;;;21.60;60.80;;;;;;4772094;30;20116;-76
2022/07/02 13:51:00;;;;;;;4.15;0.80;;;21.60;61.10;;;;;;4771996;30;20056;-77
2022/07/02 13:53:26;;;;;;;6.72;0.70;;;21.60;61.50;;;;;;4771798;30;20056;-76
2022/07/02 13:55:52;;;;;;;3.45;0.90;;;21.60;61.70;;;;;;4771704;30;20055;-77
2022/07/02 13:58:18;;;;;;;3.97;0.93;;;21.60;61.80;;;;;;4771831;30;20056;-76
2022/07/02 14:00:43;;;;;;;5.28;0.80;;;21.60;62.20;;;;;;4771680;30;20063;-75
2022/07/02 14:03:09;;;;;;;8.00;0.90;;;21.60;63.00;;;;;;4771891;30;20070;-78
2022/07/02 14:05:35;;;;;;;5.38;1.30;;;21.60;62.20;;;;;;4771994;30;20134;-76
2022/07/02 14:08:01;;;;;;;7.20;1.30;;;21.60;62.20;;;;;;4771963;30;20071;-77
2022/07/02 14:10:27;;;;;;;8.90;0.93;;;21.60;62.20;;;;;;4771714;30;20055;-76
2022/07/02 14:12:53;;;;;;;4.35;0.77;;;21.60;61.60;;;;;;4771812;30;20072;-78
2022/07/02 14:15:19;;;;;;;6.35;0.55;;;21.60;60.70;;;;;;4771812;30;20392;-77
2022/07/02 14:17:45;;;;;;;3.70;0.63;;;21.60;60.50;;;;;;4772298;30;20092;-77
2022/07/02 14:20:11;;;;;;;2.97;0.60;;;21.60;59.90;;;;;;4772935;30;20078;-77
2022/07/02 14:22:37;;;;;;;5.90;0.60;;;21.60;59.50;;;;;;4775035;30;20430;-78
2022/07/02 14:25:03;;;;;;;1.48;0.30;;;21.60;59.50;;;;;;4775272;30;20052;-77
2022/07/02 14:27:28;;;;;;;4.13;0.70;;;21.60;59.00;;;;;;4775730;30;20112;-77
2022/07/02 14:29:54;;;;;;;3.42;0.50;;;21.60;59.00;;;;;;4775138;30;20417;-82
2022/07/02 14:32:20;;;;;;;3.30;0.57;;;21.70;59.30;;;;;;4758541;30;20444;-77
2022/07/02 14:34:46;;;;;;;2.80;0.52;;;21.70;60.20;;;;;;4773876;30;20046;-77
2022/07/02 14:37:18;;;;;;;2.20;0.40;;;21.60;59.70;;;;;;4790090;30;20088;-77
2022/07/02 14:39:43;;;;;;;3.42;0.60;;;21.70;59.80;;;;;;4773675;30;20126;-77
2022/07/02 14:42:09;;;;;;;1.38;0.30;;;21.70;59.70;;;;;;4774614;30;20574;-76
2022/07/02 14:44:35;;;;;;;1.13;0.20;;;21.70;59.50;;;;;;4775860;30;20052;-77
2022/07/02 14:47:01;;;;;;;2.13;0.32;;;21.70;59.30;;;;;;4774627;30;20055;-76
2022/07/02 14:49:27;;;;;;;3.80;0.60;;;21.70;59.30;;;;;;4774918;30;20478;-77
2022/07/02 14:51:55;;;;;;;5.15;0.70;;;21.70;59.40;;;;;;4774112;30;20455;-77
2022/07/02 14:54:21;;;;;;;4.15;0.40;;;21.70;59.50;;;;;;4781540;30;20052;-76
2022/07/02 14:56:47;;;;;;;3.35;0.73;;;21.70;59.70;;;;;;4774236;30;20051;-78
2022/07/02 14:59:14;;;;;;;3.78;0.43;;;21.70;60.20;;;;;;4744153;30;20138;-78
2022/07/02 15:01:45;;;;;;;3.28;0.50;;;21.70;60.80;;;;;;4774621;30;20056;-76
2022/07/02 15:04:11;;;;;;;7.07;3.28;;;21.70;61.40;;;;;;4774600;30;20132;-76
2022/07/02 15:06:37;;;;;;;7.43;2.88;;;21.70;61.70;;;;;;4774330;30;20146;-78
2022/07/02 15:09:04;;;;;;;13.15;2.58;;;21.80;62.00;;;;;;4774260;30;20126;-79
2022/07/02 15:11:30;;;;;;;13.00;7.47;;;21.80;62.00;;;;;;4758466;30;20055;-75
2022/07/02 15:16:40;;;;;;;13.68;4.60;;;21.90;64.70;;;;;;4774451;30;20059;-80
2022/07/02 15:19:05;;;;;;;12.73;3.58;;;21.90;65.00;;;;;;4774172;30;20067;-79
2022/07/02 15:21:37;;;;;;;9.38;3.95;;;21.90;65.50;;;;;;4774597;30;20070;-80
2022/07/02 15:24:08;;;;;;;14.90;4.25;;;21.90;65.10;;;;;;4774190;30;20062;-77
2022/07/02 15:26:37;;;;;;;7.82;2.55;;;21.90;65.30;;;;;;4770316;30;20047;-73
2022/07/02 15:29:06;;;;;;;3.53;0.90;;;22.00;63.50;;;;;;4791960;30;20063;-73
2022/07/02 15:31:33;;;;;;;5.43;0.90;;;22.00;60.90;;;;;;4791347;29;20055;-72
2022/07/02 15:33:59;;;;;;;6.85;0.98;;;22.00;59.70;;;;;;4783290;30;20077;-77
2022/07/02 15:36:26;;;;;;;2.72;0.70;;;22.00;59.50;;;;;;4773870;30;20503;-81
2022/07/02 15:38:55;;;;;;;3.97;1.00;;;22.00;59.30;;;;;;4758663;30;20128;-79
2022/07/02 15:41:25;;;;;;;7.20;1.10;;;22.00;58.90;;;;;;4773968;30;20047;-76
2022/07/02 15:43:52;;;;;;;7.03;0.60;;;22.00;58.90;;;;;;4773896;30;20062;-77
2022/07/02 15:46:22;;;;;;;2.45;0.60;;;22.00;59.20;;;;;;4757862;30;20051;-76
2022/07/02 15:48:50;;;;;;;5.65;0.80;;;22.00;59.40;;;;;;4757864;30;20128;-77
2022/07/02 15:51:22;;;;;;;6.10;0.63;;;22.10;59.70;;;;;;4773653;30;20059;-79
2022/07/02 15:53:50;;;;;;;5.28;0.75;;;22.20;59.50;;;;;;4774542;30;20457;-77
2022/07/02 15:56:20;;;;;;;4.38;0.80;;;22.20;59.50;;;;;;4791720;30;20059;-77
2022/07/02 15:58:46;;;;;;;2.38;0.30;;;22.20;59.80;;;;;;4790999;30;20051;-78
2022/07/02 16:01:13;;;;;;;2.78;0.55;;;22.20;60.20;;;;;;4788650;30;20074;-77
2022/07/02 16:03:47;;;;;;;7.75;0.90;;;22.20;60.70;;;;;;4790572;30;20056;-77
2022/07/02 16:06:13;;;;;;;4.15;0.50;;;22.20;60.80;;;;;;4761473;30;20086;-77
2022/07/02 16:08:40;;;;;;;5.25;0.65;;;22.20;61.00;;;;;;4791513;30;20151;-78
2022/07/02 16:11:06;;;;;;;6.53;0.50;;;22.10;61.00;;;;;;4791323;30;20062;-76
2022/07/02 16:13:33;;;;;;;5.32;0.60;;;22.20;61.00;;;;;;4790764;30;20056;-75
2022/07/02 16:15:59;;;;;;;3.40;0.52;;;22.20;60.90;;;;;;4775015;30;20559;-78
2022/07/02 16:18:28;;;;;;;3.10;0.55;;;22.20;60.80;;;;;;4791009;30;20047;-76
2022/07/02 16:20:54;;;;;;;3.05;0.77;;;22.20;60.90;;;;;;4791167;30;20043;-72
2022/07/02 16:23:20;;;;;;;3.75;0.50;;;22.20;60.90;;;;;;4791118;30;20063;-77
2022/07/02 16:25:46;;;;;;;4.15;0.50;;;22.10;61.00;;;;;;4791200;30;20065;-75
2022/07/02 16:28:12;;;;;;;3.03;0.50;;;22.10;61.10;;;;;;4791237;30;20351;-75